Aeroporto :
LOGIN :

Iscrizione | Disclaimer

   EN    FR    IT 

 










Sommario :    VFR   VFR Marginale   IFR   IFR Intensivo   IFR Molto Intensivo
Visibilità : 
Base nubi : 
>= 8 km
>= 3000ft
5 / 8 km
1000 / 3000 ft
1500m / 5 km
500 / 1000 ft
800 / 1500m
200 / 500 ft
< 800m
< 200 ft
Simboli :   Temporali  Nebbia  Neve Forte  Precipitazioni Forti  Vento > 20 kt
SIGMETs :   Varie  Temporali  Ghiacco  Turbolenza  Onda orograficha  Ceneri Vulcaniche






- Altitudine del aeroporto : 1 ft


EGCK - Caernarfon

ULTIMO METAR :
  • 240920Z 05012KT 9999 FEW031 10/02 Q1019

METARs OBSOLETI :
  • 240850Z 04013KT 9999 FEW019 09/03 Q1019
  • 240820Z 04009KT 9999 FEW017 SCT030 09/03 Q1019
  • 240750Z AUTO 04010KT 9999 FEW015/// 09/05 Q1019
  • 240720Z AUTO 05007KT 9999 BKN010/// 08/06 Q1019
  • 240650Z AUTO 07004KT 040V110 9999 SCT008/// 08/06 Q1019
  • 240620Z AUTO 16003KT 110V170 9999 OVC009/// 07/06 Q1019
  • 240550Z AUTO 12004KT 080V170 9999 OVC010/// 06/05 Q1019
  • 240520Z AUTO 16003KT 110V200 9999 BKN012/// OVC021/// 06/04 Q1019
  • 240450Z AUTO 16004KT 9999 -RA BKN029/// OVC046/// 05/04 Q1019

TAF TAF EGCK
Valido dal 24 a 09 ore il 24 a 18 ore UTC


240755Z 2409/2418 03009KT 9999 FEW020 SCT030



MetMap, La meteo Aeronautica in un colpo d'occhio ! - Copyright ORBIFLY Dicembre 2007 - Disclaimer

ORBIFLY MET'MAP TEAM :

Programmazione e sviluppo : Alexandra Zaïnal
Concezione : Baudouin d'Aumeries
Supporto tecnico e logistico : Manuel Goepfert
Aiuto : Marc-Olivier Méhu
Aiuto per la traduzione : Arnaldo La Scala




FONTI E CREDITI :

   NOAA